Time;durP1;ratioP1;P1;durP2;ratioP2;P2;SDS_P1;SDS_P2;PMS_P1;PMS_P2;Temp;Humidity;BMP_temperature;BMP_pressure;BME280_temperature;BME280_humidity;BME280_pressure;Samples;Min_cycle;Max_cycle;Signal;HPM_P1;HPM_P2
2021/03/11 00:02:16;;;;;;;16.85;12.80;;;;;;;;;;5055369;28;20056;-46
2021/03/11 00:04:43;;;;;;;13.98;11.32;;;;;;;;;;5056527;28;20427;-44
2021/03/11 00:07:09;;;;;;;12.30;10.70;;;;;;;;;;5054245;28;20120;-45
2021/03/11 00:09:34;;;;;;;11.07;8.18;;;;;;;;;;5056016;28;20052;-43
2021/03/11 00:12:00;;;;;;;16.67;9.98;;;;;;;;;;5055188;28;20021;-43
2021/03/11 00:14:25;;;;;;;14.43;8.73;;;;;;;;;;5054446;28;20057;-44
2021/03/11 00:16:50;;;;;;;10.50;8.30;;;;;;;;;;5055517;28;20098;-43
2021/03/11 00:19:16;;;;;;;21.70;9.88;;;;;;;;;;5055476;28;20017;-44
2021/03/11 00:21:41;;;;;;;25.13;9.25;;;;;;;;;;5056060;28;20487;-45
2021/03/11 00:24:07;;;;;;;21.95;7.55;;;;;;;;;;5055347;28;20277;-43
2021/03/11 00:26:32;;;;;;;33.13;13.50;;;;;;;;;;5055021;28;20035;-45
2021/03/11 00:28:57;;;;;;;12.43;11.23;;;;;;;;;;5055181;28;20021;-48
2021/03/11 00:31:23;;;;;;;19.15;11.00;;;;;;;;;;5055333;28;20028;-46
2021/03/11 00:33:48;;;;;;;18.95;8.95;;;;;;;;;;5055328;28;20017;-45
2021/03/11 00:36:13;;;;;;;11.73;8.38;;;;;;;;;;5055039;28;20017;-43
2021/03/11 00:38:38;;;;;;;10.32;6.25;;;;;;;;;;5054048;28;20055;-43
2021/03/11 00:41:04;;;;;;;5.93;5.28;;;;;;;;;;5054913;28;20098;-46
2021/03/11 00:43:29;;;;;;;8.93;8.07;;;;;;;;;;5054943;28;20017;-44
2021/03/11 00:45:54;;;;;;;21.13;14.57;;;;;;;;;;5054476;28;20035;-43
2021/03/11 00:48:20;;;;;;;15.90;11.18;;;;;;;;;;5055136;28;20024;-44
2021/03/11 00:50:45;;;;;;;16.20;14.27;;;;;;;;;;5053456;28;20443;-44
2021/03/11 00:53:10;;;;;;;14.88;11.13;;;;;;;;;;5054537;28;20356;-45
2021/03/11 00:55:36;;;;;;;9.93;7.50;;;;;;;;;;5054595;28;20029;-42
2021/03/11 00:58:01;;;;;;;9.07;7.78;;;;;;;;;;5054627;28;20028;-45
2021/03/11 01:00:26;;;;;;;8.43;7.38;;;;;;;;;;5054549;28;20014;-44
2021/03/11 01:02:51;;;;;;;8.38;6.80;;;;;;;;;;5054278;28;20021;-44
2021/03/11 01:05:19;;;;;;;6.65;5.68;;;;;;;;;;5053528;28;20112;-47
2021/03/11 01:07:45;;;;;;;8.07;5.53;;;;;;;;;;5053997;28;20021;-45
2021/03/11 01:10:11;;;;;;;8.00;5.95;;;;;;;;;;5054165;28;20114;-46
2021/03/11 01:12:36;;;;;;;7.90;6.68;;;;;;;;;;5054602;28;20016;-44
2021/03/11 01:15:02;;;;;;;8.25;6.18;;;;;;;;;;5055178;28;20048;-44
2021/03/11 01:17:27;;;;;;;8.80;7.05;;;;;;;;;;5052860;28;20047;-45
2021/03/11 01:19:53;;;;;;;14.13;7.53;;;;;;;;;;5054344;28;20063;-44
2021/03/11 01:22:18;;;;;;;8.63;5.85;;;;;;;;;;5054589;28;20025;-45
2021/03/11 01:24:43;;;;;;;5.55;4.95;;;;;;;;;;5054450;28;20494;-43
2021/03/11 01:27:09;;;;;;;18.92;6.68;;;;;;;;;;5054230;28;20035;-46
2021/03/11 01:29:34;;;;;;;10.85;5.63;;;;;;;;;;5054412;28;20032;-46
2021/03/11 01:32:00;;;;;;;10.02;5.97;;;;;;;;;;5053931;28;20351;-43
2021/03/11 01:34:25;;;;;;;11.15;5.80;;;;;;;;;;5054651;28;20454;-46
2021/03/11 01:36:50;;;;;;;7.72;5.53;;;;;;;;;;5054124;28;20043;-49
2021/03/11 01:39:15;;;;;;;8.57;6.40;;;;;;;;;;5054358;28;20389;-46
2021/03/11 01:41:41;;;;;;;7.97;5.05;;;;;;;;;;5053899;28;20439;-43
2021/03/11 01:44:06;;;;;;;10.05;4.15;;;;;;;;;;5054268;28;20134;-43
2021/03/11 01:46:31;;;;;;;5.18;4.25;;;;;;;;;;5053567;28;20029;-45
2021/03/11 01:48:57;;;;;;;5.35;3.97;;;;;;;;;;5054012;28;20036;-45
2021/03/11 01:51:23;;;;;;;7.55;5.45;;;;;;;;;;5053592;28;20021;-44
2021/03/11 01:53:49;;;;;;;5.18;4.38;;;;;;;;;;5053856;28;20059;-45
2021/03/11 01:56:14;;;;;;;3.75;2.58;;;;;;;;;;5053552;28;20107;-45
2021/03/11 01:58:40;;;;;;;8.73;3.08;;;;;;;;;;5053423;28;20025;-43
2021/03/11 02:01:05;;;;;;;7.20;4.00;;;;;;;;;;5053202;28;20021;-44
2021/03/11 02:03:31;;;;;;;3.45;2.65;;;;;;;;;;5053453;28;20031;-44
2021/03/11 02:05:56;;;;;;;7.30;4.30;;;;;;;;;;5054082;28;20064;-44
2021/03/11 02:08:21;;;;;;;4.35;3.00;;;;;;;;;;5053397;28;20027;-43
2021/03/11 02:10:47;;;;;;;4.22;2.88;;;;;;;;;;5053370;28;20493;-46
2021/03/11 02:13:12;;;;;;;4.28;3.05;;;;;;;;;;5053066;28;20056;-46
2021/03/11 02:15:43;;;;;;;3.25;2.15;;;;;;;;;;5050693;28;20037;-43
2021/03/11 02:18:17;;;;;;;12.25;1.52;;;;;;;;;;5052965;28;20071;-43
2021/03/11 02:21:01;;;;;;;3.00;2.25;;;;;;;;;;5051082;28;20029;-43
2021/03/11 02:23:30;;;;;;;5.03;2.88;;;;;;;;;;5051996;28;20451;-43
2021/03/11 02:26:14;;;;;;;5.75;3.63;;;;;;;;;;5053087;28;20033;-44
2021/03/11 02:28:51;;;;;;;5.10;3.15;;;;;;;;;;5053087;28;20103;-45
2021/03/11 02:31:17;;;;;;;4.13;3.50;;;;;;;;;;5052085;28;20032;-44
2021/03/11 02:33:43;;;;;;;3.88;2.13;;;;;;;;;;5053063;28;20028;-46
2021/03/11 02:36:09;;;;;;;7.68;4.60;;;;;;;;;;5052781;28;20115;-43
2021/03/11 02:38:34;;;;;;;6.63;4.05;;;;;;;;;;5052912;28;20056;-43
2021/03/11 02:41:01;;;;;;;4.85;3.28;;;;;;;;;;5053025;28;20052;-49
2021/03/11 02:43:26;;;;;;;4.47;3.08;;;;;;;;;;5052892;28;20496;-44
2021/03/11 02:45:52;;;;;;;4.22;2.72;;;;;;;;;;5052846;28;20104;-44
2021/03/11 02:48:18;;;;;;;4.53;3.22;;;;;;;;;;5053376;28;20029;-46
2021/03/11 02:50:43;;;;;;;2.72;2.28;;;;;;;;;;5052956;28;20151;-46
2021/03/11 02:53:10;;;;;;;4.53;3.08;;;;;;;;;;5053341;28;20111;-43
2021/03/11 02:55:36;;;;;;;8.27;3.58;;;;;;;;;;5052848;28;20122;-43
2021/03/11 02:58:02;;;;;;;11.68;4.88;;;;;;;;;;5053320;28;20021;-46
2021/03/11 03:00:27;;;;;;;6.38;2.95;;;;;;;;;;5052632;28;20017;-44
2021/03/11 03:02:53;;;;;;;6.10;2.47;;;;;;;;;;5052736;28;20068;-44
2021/03/11 03:05:21;;;;;;;2.90;2.35;;;;;;;;;;5052387;28;20027;-44
2021/03/11 03:07:47;;;;;;;4.43;3.20;;;;;;;;;;5052932;28;20032;-45
2021/03/11 03:10:15;;;;;;;5.78;3.53;;;;;;;;;;5052450;28;20024;-43
2021/03/11 03:12:41;;;;;;;5.57;2.92;;;;;;;;;;5052493;28;20100;-43
2021/03/11 03:15:10;;;;;;;5.75;3.55;;;;;;;;;;5053649;28;20053;-43
2021/03/11 03:17:37;;;;;;;3.58;3.17;;;;;;;;;;5052610;28;20052;-48
2021/03/11 03:20:06;;;;;;;3.80;3.03;;;;;;;;;;5053655;28;20059;-47
2021/03/11 03:22:31;;;;;;;3.72;3.30;;;;;;;;;;5052583;28;20025;-45
2021/03/11 03:24:57;;;;;;;6.55;3.65;;;;;;;;;;5053026;28;20028;-49
2021/03/11 03:27:22;;;;;;;3.00;2.15;;;;;;;;;;5050208;28;20099;-49
2021/03/11 03:29:48;;;;;;;4.45;2.28;;;;;;;;;;5051664;28;20167;-47
2021/03/11 03:32:13;;;;;;;3.15;2.58;;;;;;;;;;5051522;28;20508;-44
2021/03/11 03:34:39;;;;;;;5.10;3.55;;;;;;;;;;5051543;28;20382;-43
2021/03/11 03:37:04;;;;;;;4.90;3.03;;;;;;;;;;5052359;28;20111;-45
2021/03/11 03:39:29;;;;;;;1.50;1.40;;;;;;;;;;5052732;28;20017;-44
2021/03/11 03:41:56;;;;;;;4.82;2.28;;;;;;;;;;5054787;28;20043;-44
2021/03/11 03:44:23;;;;;;;4.15;2.03;;;;;;;;;;5056079;28;20467;-44
2021/03/11 03:46:49;;;;;;;2.70;1.80;;;;;;;;;;5055902;28;20025;-45
2021/03/11 03:49:14;;;;;;;3.53;2.67;;;;;;;;;;5056215;28;20025;-44
2021/03/11 03:51:42;;;;;;;4.38;2.40;;;;;;;;;;5055565;28;20047;-43
2021/03/11 03:54:14;;;;;;;2.97;1.42;;;;;;;;;;5056217;28;20044;-47
2021/03/11 03:56:41;;;;;;;2.78;1.70;;;;;;;;;;5055499;28;20021;-44
2021/03/11 03:59:09;;;;;;;5.28;2.15;;;;;;;;;;5055796;28;20059;-43
2021/03/11 04:01:36;;;;;;;4.72;2.60;;;;;;;;;;5055385;28;20390;-45
2021/03/11 04:04:03;;;;;;;3.67;2.28;;;;;;;;;;5055808;28;20021;-45
2021/03/11 04:06:29;;;;;;;2.95;1.70;;;;;;;;;;5055310;28;20078;-45
2021/03/11 04:08:55;;;;;;;2.50;1.73;;;;;;;;;;5055778;28;20067;-46
2021/03/11 04:11:20;;;;;;;4.18;2.05;;;;;;;;;;5055552;28;20064;-44
2021/03/11 04:13:46;;;;;;;3.58;1.50;;;;;;;;;;5055743;28;20028;-45
2021/03/11 04:16:13;;;;;;;3.33;1.25;;;;;;;;;;5055207;28;20036;-44
2021/03/11 04:18:38;;;;;;;2.08;1.35;;;;;;;;;;5055660;28;20017;-43
2021/03/11 04:21:06;;;;;;;2.40;1.75;;;;;;;;;;5055347;28;20390;-44
2021/03/11 04:23:32;;;;;;;2.20;1.33;;;;;;;;;;5055176;28;20036;-46
2021/03/11 04:25:57;;;;;;;2.22;1.20;;;;;;;;;;5055199;28;20056;-43
2021/03/11 04:28:23;;;;;;;3.60;2.35;;;;;;;;;;5055236;28;20106;-43
2021/03/11 04:30:48;;;;;;;2.70;1.48;;;;;;;;;;5055678;28;20017;-44
2021/03/11 04:33:14;;;;;;;3.78;1.95;;;;;;;;;;5055352;28;20013;-43
2021/03/11 04:35:40;;;;;;;1.55;1.13;;;;;;;;;;5054795;28;20447;-44
2021/03/11 04:38:05;;;;;;;2.83;1.95;;;;;;;;;;5055020;28;20013;-44
2021/03/11 04:40:31;;;;;;;2.25;1.42;;;;;;;;;;5054651;28;20032;-45
2021/03/11 04:42:56;;;;;;;2.25;1.38;;;;;;;;;;5054834;28;20028;-44
2021/03/11 04:45:22;;;;;;;2.72;1.98;;;;;;;;;;5054516;28;20021;-44
2021/03/11 04:47:48;;;;;;;3.05;1.58;;;;;;;;;;5054653;28;20020;-44
2021/03/11 04:50:13;;;;;;;9.30;2.10;;;;;;;;;;5052112;28;20029;-43
2021/03/11 04:52:40;;;;;;;5.47;2.13;;;;;;;;;;5051420;28;20024;-44
2021/03/11 04:55:05;;;;;;;2.65;1.25;;;;;;;;;;5052715;28;20474;-43
2021/03/11 04:57:31;;;;;;;3.78;1.50;;;;;;;;;;5054177;28;20115;-46
2021/03/11 04:59:57;;;;;;;2.92;1.45;;;;;;;;;;5053590;28;20017;-45
2021/03/11 05:02:26;;;;;;;4.55;1.27;;;;;;;;;;5054915;28;20447;-48
2021/03/11 05:04:51;;;;;;;6.03;1.85;;;;;;;;;;5054889;28;20542;-45
2021/03/11 05:07:17;;;;;;;14.15;1.58;;;;;;;;;;5053003;28;20043;-47
2021/03/11 05:09:42;;;;;;;12.10;1.40;;;;;;;;;;5053181;28;20021;-45
2021/03/11 05:12:07;;;;;;;6.07;1.58;;;;;;;;;;5053011;28;20071;-46
2021/03/11 05:14:33;;;;;;;2.53;0.98;;;;;;;;;;5054519;28;20021;-50
2021/03/11 05:16:58;;;;;;;1.70;1.15;;;;;;;;;;5054502;28;20052;-47
2021/03/11 05:19:23;;;;;;;2.28;1.40;;;;;;;;;;5054455;28;20025;-47
2021/03/11 05:21:49;;;;;;;1.50;0.80;;;;;;;;;;5054422;28;20052;-47
2021/03/11 05:24:14;;;;;;;1.70;1.50;;;;;;;;;;5054267;28;20087;-46
2021/03/11 05:26:39;;;;;;;1.83;1.13;;;;;;;;;;5054035;28;20094;-44
2021/03/11 05:29:04;;;;;;;1.50;0.82;;;;;;;;;;5055045;28;20017;-43
2021/03/11 05:31:30;;;;;;;4.50;2.28;;;;;;;;;;5054522;28;20033;-46
2021/03/11 05:33:55;;;;;;;3.90;1.42;;;;;;;;;;5053968;28;20105;-45
2021/03/11 05:36:20;;;;;;;2.78;2.20;;;;;;;;;;5054161;28;20344;-45
2021/03/11 05:38:46;;;;;;;2.83;1.50;;;;;;;;;;5054343;28;20028;-44
2021/03/11 05:41:13;;;;;;;3.28;2.33;;;;;;;;;;5054276;28;20029;-46
2021/03/11 05:43:40;;;;;;;4.38;1.85;;;;;;;;;;5053681;28;20023;-44
2021/03/11 05:46:05;;;;;;;3.70;1.45;;;;;;;;;;5053870;28;20506;-44
2021/03/11 05:48:32;;;;;;;1.55;1.23;;;;;;;;;;5053857;28;20104;-44
2021/03/11 05:50:57;;;;;;;6.15;1.95;;;;;;;;;;5053684;28;20021;-44
2021/03/11 05:53:23;;;;;;;3.58;1.73;;;;;;;;;;5053488;28;20124;-46
2021/03/11 05:55:49;;;;;;;2.55;1.90;;;;;;;;;;5053614;28;20029;-43
2021/03/11 05:58:17;;;;;;;3.15;1.92;;;;;;;;;;5053523;28;20032;-44
2021/03/11 06:00:43;;;;;;;4.63;3.05;;;;;;;;;;5053499;28;20497;-44
2021/03/11 06:03:08;;;;;;;6.60;2.08;;;;;;;;;;5053507;28;20096;-44
2021/03/11 06:05:33;;;;;;;7.47;1.40;;;;;;;;;;5052696;28;20054;-49
2021/03/11 06:07:59;;;;;;;4.80;3.38;;;;;;;;;;5053642;28;20440;-44
2021/03/11 06:10:25;;;;;;;4.18;2.38;;;;;;;;;;5053075;28;20090;-46
2021/03/11 06:12:51;;;;;;;2.08;1.73;;;;;;;;;;5053191;28;20026;-46
2021/03/11 06:15:25;;;;;;;5.65;3.95;;;;;;;;;;5050921;28;20021;-48
2021/03/11 06:17:51;;;;;;;3.88;2.63;;;;;;;;;;5051574;28;20036;-48
2021/03/11 06:20:17;;;;;;;4.40;2.75;;;;;;;;;;5053261;28;20017;-49
2021/03/11 06:22:42;;;;;;;8.60;3.08;;;;;;;;;;5051755;28;20347;-45
2021/03/11 06:25:08;;;;;;;5.60;3.28;;;;;;;;;;5053873;28;20476;-43
2021/03/11 06:27:34;;;;;;;6.57;3.28;;;;;;;;;;5053351;28;20037;-46
2021/03/11 06:29:59;;;;;;;6.10;3.15;;;;;;;;;;5049885;28;20532;-47
2021/03/11 06:32:25;;;;;;;7.43;3.58;;;;;;;;;;5053053;28;20049;-43
2021/03/11 06:34:51;;;;;;;18.33;11.25;;;;;;;;;;5053186;28;20359;-45
2021/03/11 06:37:33;;;;;;;19.60;12.43;;;;;;;;;;5052987;28;20036;-44
2021/03/11 06:40:11;;;;;;;17.92;9.55;;;;;;;;;;5053723;28;20029;-46
2021/03/11 06:42:36;;;;;;;18.40;12.38;;;;;;;;;;5053727;28;20017;-43
2021/03/11 06:45:18;;;;;;;28.70;10.90;;;;;;;;;;5053731;28;20047;-47
2021/03/11 06:47:43;;;;;;;17.63;8.93;;;;;;;;;;5053157;28;20426;-43
2021/03/11 06:50:08;;;;;;;12.05;9.07;;;;;;;;;;5052262;28;20049;-45
2021/03/11 06:52:33;;;;;;;17.60;9.70;;;;;;;;;;5052600;28;20099;-44
2021/03/11 06:55:00;;;;;;;16.48;11.80;;;;;;;;;;5053267;28;20021;-42
2021/03/11 06:57:29;;;;;;;17.60;12.23;;;;;;;;;;5052891;28;20103;-43
2021/03/11 06:59:54;;;;;;;14.68;13.38;;;;;;;;;;5053091;28;20056;-42
2021/03/11 07:02:20;;;;;;;8.25;7.30;;;;;;;;;;5052737;28;20028;-41
2021/03/11 07:04:46;;;;;;;12.50;6.60;;;;;;;;;;5053218;28;20032;-43
2021/03/11 07:07:21;;;;;;;13.20;6.38;;;;;;;;;;5052859;28;20513;-44
2021/03/11 07:09:47;;;;;;;8.23;5.85;;;;;;;;;;5053097;28;20039;-48
2021/03/11 07:12:12;;;;;;;4.90;3.40;;;;;;;;;;5050406;28;20025;-44
2021/03/11 07:14:38;;;;;;;12.18;6.93;;;;;;;;;;5050766;28;20431;-43
2021/03/11 07:17:20;;;;;;;20.85;11.15;;;;;;;;;;5055252;28;20044;-51
2021/03/11 07:20:03;;;;;;;21.55;11.73;;;;;;;;;;5056984;28;20358;-46
2021/03/11 07:22:29;;;;;;;17.63;9.45;;;;;;;;;;5055930;28;20017;-46
2021/03/11 07:24:54;;;;;;;31.65;13.07;;;;;;;;;;5056380;28;20203;-45
2021/03/11 07:27:19;;;;;;;45.40;29.15;;;;;;;;;;5056130;28;20359;-45
2021/03/11 07:29:59;;;;;;;49.95;34.10;;;;;;;;;;5056495;28;20070;-43
2021/03/11 07:32:25;;;;;;;32.03;26.58;;;;;;;;;;5056547;28;20021;-46
2021/03/11 07:34:50;;;;;;;24.15;18.25;;;;;;;;;;5056839;28;20023;-43
2021/03/11 07:37:16;;;;;;;24.17;18.58;;;;;;;;;;5056114;28;20524;-45
2021/03/11 07:39:43;;;;;;;20.17;14.80;;;;;;;;;;5056970;28;20028;-44
2021/03/11 07:42:09;;;;;;;25.48;14.00;;;;;;;;;;5055686;28;20469;-43
2021/03/11 07:44:35;;;;;;;12.77;9.57;;;;;;;;;;5056416;28;20025;-44
2021/03/11 07:47:00;;;;;;;8.80;6.88;;;;;;;;;;5055739;28;20367;-43
2021/03/11 07:49:29;;;;;;;11.88;6.45;;;;;;;;;;5056198;28;20439;-50
2021/03/11 07:51:58;;;;;;;10.13;7.78;;;;;;;;;;5055486;28;20138;-43
2021/03/11 07:54:23;;;;;;;17.25;6.68;;;;;;;;;;5056612;28;20025;-44
2021/03/11 07:56:49;;;;;;;15.18;9.05;;;;;;;;;;5055970;28;20025;-44
2021/03/11 07:59:15;;;;;;;23.00;12.40;;;;;;;;;;5054436;28;20021;-43
2021/03/11 08:04:43;;;;;;;28.67;25.73;;;;;;;;;;5055886;28;20074;-44
2021/03/11 08:07:15;;;;;;;38.42;34.53;;;;;;;;;;5055466;28;20020;-42
2021/03/11 08:09:41;;;;;;;44.05;35.45;;;;;;;;;;5056219;28;20056;-46
2021/03/11 08:12:24;;;;;;;38.55;34.58;;;;;;;;;;5055422;28;20059;-44
2021/03/11 08:14:50;;;;;;;47.63;27.38;;;;;;;;;;5055654;28;20035;-46
2021/03/11 08:17:33;;;;;;;33.95;21.58;;;;;;;;;;5055308;28;20406;-45
2021/03/11 08:19:59;;;;;;;34.45;22.23;;;;;;;;;;5055645;28;20465;-43
2021/03/11 08:22:43;;;;;;;24.80;22.10;;;;;;;;;;5055189;28;20009;-39
2021/03/11 08:25:28;;;;;;;68.60;58.50;;;;;;;;;;5055428;28;20422;-42
2021/03/11 08:27:53;;;;;;;36.72;32.28;;;;;;;;;;5052395;28;20021;-41
2021/03/11 08:30:37;;;;;;;80.68;44.20;;;;;;;;;;5050412;28;20356;-46
2021/03/11 08:33:03;;;;;;;26.65;22.05;;;;;;;;;;5050083;28;20025;-41
2021/03/11 08:35:28;;;;;;;26.98;22.92;;;;;;;;;;5049686;28;20021;-48
2021/03/11 08:37:54;;;;;;;27.30;24.67;;;;;;;;;;5048891;28;20017;-42
2021/03/11 08:40:35;;;;;;;16.10;13.90;;;;;;;;;;5049788;28;20021;-43
2021/03/11 08:43:00;;;;;;;11.40;8.75;;;;;;;;;;5050212;28;20013;-45
2021/03/11 08:45:49;;;;;;;20.38;9.95;;;;;;;;;;5050362;28;20025;-42
2021/03/11 08:48:15;;;;;;;8.40;7.28;;;;;;;;;;5036250;28;20069;-45
2021/03/11 08:50:44;;;;;;;5.88;5.28;;;;;;;;;;5048649;28;20027;-43
2021/03/11 08:53:10;;;;;;;7.65;6.20;;;;;;;;;;5050049;28;20097;-45
2021/03/11 08:55:36;;;;;;;9.82;6.25;;;;;;;;;;5050413;28;20454;-46
2021/03/11 08:58:01;;;;;;;9.43;4.53;;;;;;;;;;5048448;28;20025;-49
2021/03/11 09:00:45;;;;;;;7.88;6.28;;;;;;;;;;5049370;28;20067;-45
2021/03/11 09:03:29;;;;;;;11.48;7.18;;;;;;;;;;5049171;28;20107;-42
2021/03/11 09:05:54;;;;;;;9.60;5.60;;;;;;;;;;5049713;28;20024;-43
2021/03/11 09:08:20;;;;;;;14.45;6.60;;;;;;;;;;5054451;28;20103;-45
2021/03/11 09:10:45;;;;;;;6.28;5.15;;;;;;;;;;5054526;28;20147;-46
2021/03/11 09:13:12;;;;;;;11.65;9.02;;;;;;;;;;5054238;28;20036;-42
2021/03/11 09:15:37;;;;;;;10.68;8.88;;;;;;;;;;5054799;28;20108;-48
2021/03/11 09:18:03;;;;;;;8.77;6.43;;;;;;;;;;5053985;28;20063;-51
2021/03/11 09:20:28;;;;;;;17.15;11.50;;;;;;;;;;5054543;28;20439;-43
2021/03/11 09:22:53;;;;;;;22.70;14.82;;;;;;;;;;5054571;28;20398;-43
2021/03/11 09:25:23;;;;;;;17.10;11.95;;;;;;;;;;5054631;28;20067;-47
2021/03/11 09:27:52;;;;;;;9.55;6.80;;;;;;;;;;5054129;28;20025;-44
2021/03/11 09:30:18;;;;;;;6.38;4.65;;;;;;;;;;5054569;28;20343;-48
2021/03/11 09:32:44;;;;;;;14.02;6.85;;;;;;;;;;5053675;28;20204;-47
2021/03/11 09:38:17;;;;;;;15.13;7.55;;;;;;;;;;5054039;28;20044;-47
2021/03/11 09:40:43;;;;;;;9.77;7.22;;;;;;;;;;5053866;28;20044;-49
2021/03/11 09:43:17;;;;;;;21.30;7.05;;;;;;;;;;5053057;28;20021;-47
2021/03/11 09:45:43;;;;;;;7.65;5.55;;;;;;;;;;5053617;28;20025;-48
2021/03/11 09:48:15;;;;;;;7.65;6.30;;;;;;;;;;5052008;28;20448;-47
2021/03/11 09:50:50;;;;;;;9.48;5.72;;;;;;;;;;5052126;28;20025;-47
2021/03/11 09:53:16;;;;;;;15.52;7.45;;;;;;;;;;5053840;28;20040;-45
2021/03/11 09:55:42;;;;;;;13.07;5.93;;;;;;;;;;5048852;28;20021;-43
2021/03/11 09:58:13;;;;;;;11.80;6.88;;;;;;;;;;5048006;28;20029;-45
2021/03/11 10:00:38;;;;;;;14.90;5.50;;;;;;;;;;5047980;28;20478;-49
2021/03/11 10:03:04;;;;;;;14.15;5.28;;;;;;;;;;5048536;28;20060;-52
2021/03/11 10:05:31;;;;;;;9.75;6.53;;;;;;;;;;5048492;28;20343;-52
2021/03/11 10:07:57;;;;;;;9.73;7.00;;;;;;;;;;5047727;28;20029;-50
2021/03/11 10:10:22;;;;;;;7.32;5.68;;;;;;;;;;5047599;28;20025;-56
2021/03/11 10:12:48;;;;;;;9.20;8.00;;;;;;;;;;5047736;28;20168;-50
2021/03/11 10:15:14;;;;;;;10.57;7.65;;;;;;;;;;5048014;28;20456;-58
2021/03/11 10:17:40;;;;;;;15.77;12.98;;;;;;;;;;5048114;28;20132;-51
2021/03/11 10:20:22;;;;;;;15.35;6.53;;;;;;;;;;5048536;28;20041;-46
2021/03/11 10:22:47;;;;;;;;;;;;;;;;;;5045523;28;20475;-56
2021/03/11 10:25:13;;;;;;;19.02;7.15;;;;;;;;;;5047026;28;20004;-56
2021/03/11 10:27:42;;;;;;;9.48;5.88;;;;;;;;;;5043361;28;20103;-56
2021/03/11 10:30:12;;;;;;;9.05;6.30;;;;;;;;;;5048912;28;20031;-52
2021/03/11 10:32:41;;;;;;;14.95;6.22;;;;;;;;;;5048339;28;20078;-45
2021/03/11 10:35:11;;;;;;;12.00;7.10;;;;;;;;;;5048532;28;20029;-49
2021/03/11 10:37:37;;;;;;;11.20;6.50;;;;;;;;;;5049879;28;20028;-49
2021/03/11 10:40:12;;;;;;;20.42;5.50;;;;;;;;;;5053433;28;20075;-46
2021/03/11 10:42:45;;;;;;;19.00;7.00;;;;;;;;;;5053017;28;20516;-48
2021/03/11 10:45:12;;;;;;;19.30;7.35;;;;;;;;;;5045832;28;20028;-49
2021/03/11 10:47:38;;;;;;;15.15;7.82;;;;;;;;;;5052856;28;20031;-48
2021/03/11 10:50:15;;;;;;;13.75;6.78;;;;;;;;;;5053650;28;20025;-51
2021/03/11 10:52:50;;;;;;;13.55;6.05;;;;;;;;;;5057133;28;20409;-49
2021/03/11 10:55:26;;;;;;;18.70;5.93;;;;;;;;;;5056564;28;20063;-50
2021/03/11 10:57:51;;;;;;;13.50;6.60;;;;;;;;;;5056851;28;20103;-45
2021/03/11 11:00:37;;;;;;;11.10;5.55;;;;;;;;;;5057186;28;20052;-49
2021/03/11 11:03:03;;;;;;;9.05;4.47;;;;;;;;;;5056525;28;20047;-51
2021/03/11 11:05:29;;;;;;;15.85;7.22;;;;;;;;;;5054975;28;20414;-48
2021/03/11 11:07:55;;;;;;;8.80;5.55;;;;;;;;;;5054007;28;20032;-48
2021/03/11 11:10:23;;;;;;;8.50;4.18;;;;;;;;;;5056712;28;20062;-50
2021/03/11 11:12:49;;;;;;;11.20;5.00;;;;;;;;;;5056223;28;20399;-46
2021/03/11 11:15:15;;;;;;;15.40;4.72;;;;;;;;;;5051994;28;20151;-45
2021/03/11 11:17:40;;;;;;;6.32;4.60;;;;;;;;;;5053328;28;20060;-46
2021/03/11 11:20:07;;;;;;;4.35;2.90;;;;;;;;;;5051233;28;20029;-48
2021/03/11 11:22:32;;;;;;;8.07;6.13;;;;;;;;;;5050159;28;20040;-55
2021/03/11 11:24:59;;;;;;;11.75;4.63;;;;;;;;;;5050303;28;20440;-57
2021/03/11 11:27:24;;;;;;;10.85;3.63;;;;;;;;;;5049776;28;20071;-47
2021/03/11 11:29:49;;;;;;;11.80;4.30;;;;;;;;;;5050613;28;20029;-49
2021/03/11 11:32:15;;;;;;;6.05;4.13;;;;;;;;;;5050295;28;20483;-46
2021/03/11 11:34:40;;;;;;;3.05;2.58;;;;;;;;;;5056585;28;20098;-46
2021/03/11 11:37:05;;;;;;;10.82;5.65;;;;;;;;;;5056459;28;20027;-46
2021/03/11 11:39:30;;;;;;;12.45;3.63;;;;;;;;;;5056976;28;20339;-47
2021/03/11 11:41:56;;;;;;;6.47;4.38;;;;;;;;;;5056135;28;20017;-46
2021/03/11 11:44:23;;;;;;;17.02;10.55;;;;;;;;;;5056605;28;20075;-44
2021/03/11 11:46:48;;;;;;;15.73;8.52;;;;;;;;;;5054531;28;20462;-49
2021/03/11 11:49:14;;;;;;;6.43;5.47;;;;;;;;;;5056101;28;20029;-46
2021/03/11 11:51:39;;;;;;;6.97;5.15;;;;;;;;;;5056268;28;20080;-46
2021/03/11 11:54:05;;;;;;;9.38;5.40;;;;;;;;;;5056078;28;20025;-46
2021/03/11 11:56:30;;;;;;;9.77;5.35;;;;;;;;;;5055584;28;20025;-45
2021/03/11 11:58:55;;;;;;;6.45;4.32;;;;;;;;;;5055854;28;20121;-49
2021/03/11 12:01:21;;;;;;;14.52;6.82;;;;;;;;;;5054819;28;20100;-46
2021/03/11 12:03:46;;;;;;;6.88;4.80;;;;;;;;;;5055651;28;20036;-46
2021/03/11 12:06:12;;;;;;;10.68;4.63;;;;;;;;;;5055562;28;20443;-44
2021/03/11 12:08:38;;;;;;;8.27;4.55;;;;;;;;;;5056006;28;20036;-46
2021/03/11 12:11:03;;;;;;;14.88;4.40;;;;;;;;;;5055076;28;20025;-49
2021/03/11 12:13:28;;;;;;;9.65;5.10;;;;;;;;;;5055215;28;20021;-44
2021/03/11 12:15:54;;;;;;;17.27;6.07;;;;;;;;;;5055693;28;20024;-46
2021/03/11 12:18:19;;;;;;;9.80;3.97;;;;;;;;;;5056439;28;20120;-45
2021/03/11 12:20:44;;;;;;;7.53;4.38;;;;;;;;;;5053816;28;20060;-45
2021/03/11 12:23:10;;;;;;;19.77;8.15;;;;;;;;;;5055136;28;20027;-47
2021/03/11 12:25:35;;;;;;;12.27;6.65;;;;;;;;;;5055354;28;20444;-44
2021/03/11 12:28:01;;;;;;;12.98;7.68;;;;;;;;;;5047509;28;20079;-54
2021/03/11 12:30:27;;;;;;;12.18;5.63;;;;;;;;;;5049101;28;20048;-51
2021/03/11 12:32:52;;;;;;;9.18;3.33;;;;;;;;;;5048819;28;20028;-53
2021/03/11 12:35:18;;;;;;;20.95;6.22;;;;;;;;;;5049045;28;20028;-54
2021/03/11 12:37:43;;;;;;;9.88;4.03;;;;;;;;;;5048587;28;20029;-48
2021/03/11 12:40:09;;;;;;;4.97;3.25;;;;;;;;;;5048950;28;20073;-47
2021/03/11 12:42:35;;;;;;;21.83;5.00;;;;;;;;;;5047954;28;20035;-54
2021/03/11 12:45:00;;;;;;;10.25;5.45;;;;;;;;;;5051808;28;20459;-46
2021/03/11 12:47:25;;;;;;;16.58;4.82;;;;;;;;;;5054828;28;20112;-45
2021/03/11 12:52:53;;;;;;;13.10;5.60;;;;;;;;;;5054694;28;20099;-49
2021/03/11 12:55:19;;;;;;;10.63;5.18;;;;;;;;;;5054746;28;20040;-46
2021/03/11 12:57:45;;;;;;;5.15;2.88;;;;;;;;;;5055249;28;20059;-46
2021/03/11 13:00:11;;;;;;;10.43;3.90;;;;;;;;;;5054677;28;20063;-44
2021/03/11 13:02:36;;;;;;;8.45;3.80;;;;;;;;;;5054572;28;20045;-45
2021/03/11 13:05:02;;;;;;;9.93;3.42;;;;;;;;;;5054886;28;20032;-49
2021/03/11 13:07:28;;;;;;;7.30;4.10;;;;;;;;;;5054477;28;20032;-45
2021/03/11 13:09:53;;;;;;;11.30;6.50;;;;;;;;;;5053761;28;20451;-46
2021/03/11 13:12:18;;;;;;;8.32;4.10;;;;;;;;;;5053897;28;20028;-52
2021/03/11 13:14:44;;;;;;;6.22;3.53;;;;;;;;;;5054252;28;20067;-46
2021/03/11 13:17:09;;;;;;;13.98;3.90;;;;;;;;;;5054761;28;20041;-49
2021/03/11 13:19:34;;;;;;;7.45;3.50;;;;;;;;;;5054900;28;20392;-46
2021/03/11 13:22:00;;;;;;;12.00;2.67;;;;;;;;;;5054227;28;20074;-47
2021/03/11 13:24:25;;;;;;;12.00;4.72;;;;;;;;;;5054382;28;20032;-48
2021/03/11 13:26:51;;;;;;;7.07;2.58;;;;;;;;;;5053941;28;20086;-46
2021/03/11 13:29:17;;;;;;;8.23;3.17;;;;;;;;;;5054355;28;20021;-51
2021/03/11 13:31:42;;;;;;;17.85;4.15;;;;;;;;;;5054033;28;20039;-51
2021/03/11 13:34:07;;;;;;;19.85;11.68;;;;;;;;;;5051004;28;20025;-51
2021/03/11 13:36:34;;;;;;;15.82;7.47;;;;;;;;;;5047665;28;20076;-56
2021/03/11 13:39:00;;;;;;;11.10;6.35;;;;;;;;;;5047752;28;20036;-52
2021/03/11 13:41:25;;;;;;;10.13;5.28;;;;;;;;;;5047184;28;20025;-50
2021/03/11 13:43:50;;;;;;;6.85;4.00;;;;;;;;;;5047535;28;20376;-49
2021/03/11 13:46:16;;;;;;;9.90;4.55;;;;;;;;;;5047287;28;20029;-51
2021/03/11 13:48:41;;;;;;;7.22;4.47;;;;;;;;;;5047807;28;20048;-46
2021/03/11 13:51:07;;;;;;;9.70;4.55;;;;;;;;;;5049005;28;20100;-44
2021/03/11 13:53:32;;;;;;;7.95;4.80;;;;;;;;;;5053818;28;20151;-50
2021/03/11 13:55:57;;;;;;;7.47;4.45;;;;;;;;;;5053872;28;20017;-44
2021/03/11 13:58:23;;;;;;;9.90;6.45;;;;;;;;;;5053371;28;20029;-49
2021/03/11 14:00:49;;;;;;;9.95;4.45;;;;;;;;;;5053594;28;20103;-51
2021/03/11 14:03:15;;;;;;;11.75;5.68;;;;;;;;;;5053757;28;20098;-45
2021/03/11 14:05:40;;;;;;;11.23;4.78;;;;;;;;;;5053682;28;20443;-45
2021/03/11 14:08:05;;;;;;;7.20;2.92;;;;;;;;;;5053747;28;20072;-45
2021/03/11 14:10:31;;;;;;;5.60;4.35;;;;;;;;;;5053309;28;20477;-49
2021/03/11 14:12:56;;;;;;;6.55;5.50;;;;;;;;;;5053074;28;20025;-49
2021/03/11 14:15:21;;;;;;;14.18;5.05;;;;;;;;;;5053044;28;20021;-50
2021/03/11 14:17:46;;;;;;;12.25;5.60;;;;;;;;;;5054203;28;20052;-53
2021/03/11 14:20:12;;;;;;;6.70;2.55;;;;;;;;;;5053300;28;20029;-50
2021/03/11 14:22:37;;;;;;;8.52;5.47;;;;;;;;;;5052834;28;20013;-45
2021/03/11 14:25:04;;;;;;;15.48;7.28;;;;;;;;;;5053417;28;20420;-61
2021/03/11 14:27:29;;;;;;;11.63;6.43;;;;;;;;;;5053047;28;20028;-60
2021/03/11 14:29:55;;;;;;;16.00;8.63;;;;;;;;;;5053812;28;20051;-61
2021/03/11 14:32:21;;;;;;;17.50;5.35;;;;;;;;;;5053115;28;20032;-61
2021/03/11 14:34:46;;;;;;;15.00;7.82;;;;;;;;;;5053397;28;20039;-62
2021/03/11 14:37:12;;;;;;;23.67;8.25;;;;;;;;;;5053036;28;20024;-61
2021/03/11 14:39:37;;;;;;;17.08;8.32;;;;;;;;;;5053730;28;20025;-60
2021/03/11 14:42:03;;;;;;;10.95;7.45;;;;;;;;;;5051565;28;20040;-60
2021/03/11 14:44:28;;;;;;;15.18;5.88;;;;;;;;;;5050540;28;20440;-59